createdAt,value
2019-01-16T00:00:48.957Z,10.30
2019-01-16T00:03:38.403Z,16.37
2019-01-16T00:06:27.852Z,12.20
2019-01-16T00:09:17.176Z,10.40
2019-01-16T00:12:06.728Z,13.67
2019-01-16T00:14:54.622Z,17.10
2019-01-16T00:17:44.016Z,14.53
2019-01-16T00:20:33.443Z,15.63
2019-01-16T00:23:22.754Z,9.27
2019-01-16T00:26:12.079Z,10.03
2019-01-16T00:28:50.836Z,11.77
2019-01-16T00:31:33.146Z,10.93
2019-01-16T00:34:22.826Z,10.27
2019-01-16T00:37:12.249Z,10.60
2019-01-16T00:39:58.943Z,8.13
2019-01-16T00:42:48.196Z,13.30
2019-01-16T00:45:30.673Z,9.77
2019-01-16T00:48:24.496Z,8.77
2019-01-16T00:51:11.073Z,6.13
2019-01-16T00:53:51.698Z,10.23
2019-01-16T00:56:41.179Z,8.13
2019-01-16T00:59:30.702Z,14.87
2019-01-16T01:02:20.219Z,8.63
2019-01-16T01:05:07.772Z,10.90
2019-01-16T01:07:50.809Z,9.93
2019-01-16T01:10:28.859Z,9.20
2019-01-16T01:13:18.252Z,6.57
2019-01-16T01:16:07.597Z,7.07
2019-01-16T01:18:51.127Z,6.57
2019-01-16T01:21:40.600Z,5.77
2019-01-16T01:24:30.033Z,5.00
2019-01-16T01:27:15.880Z,5.97
2019-01-16T01:30:05.557Z,5.70
2019-01-16T01:32:55.006Z,6.63
2019-01-16T01:35:44.542Z,6.63
2019-01-16T01:38:32.026Z,8.13
2019-01-16T01:41:21.576Z,5.10
2019-01-16T01:43:58.179Z,5.13
2019-01-16T01:46:47.632Z,6.53
2019-01-16T01:49:36.968Z,5.63
2019-01-16T01:52:27.703Z,5.27
2019-01-16T01:55:08.033Z,5.43
2019-01-16T01:57:53.956Z,3.37
2019-01-16T02:00:43.365Z,3.90
2019-01-16T02:03:32.170Z,6.83
2019-01-16T02:06:22.207Z,3.70
2019-01-16T02:09:11.515Z,5.10
2019-01-16T02:12:01.482Z,3.20
2019-01-16T02:14:48.986Z,3.43
2019-01-16T02:17:38.400Z,3.10
2019-01-16T02:20:19.343Z,4.10
2019-01-16T02:23:08.753Z,5.27
2019-01-16T02:25:58.872Z,7.67
2019-01-16T02:28:43.058Z,5.80
2019-01-16T02:31:27.228Z,7.33
2019-01-16T02:34:14.602Z,5.47
2019-01-16T02:36:55.922Z,7.37
2019-01-16T02:39:45.238Z,5.30
2019-01-16T02:42:34.728Z,6.97
2019-01-16T02:45:25.444Z,5.87
2019-01-16T02:48:12.702Z,6.50
2019-01-16T02:51:02.239Z,5.90
2019-01-16T02:53:51.640Z,5.90
2019-01-16T02:56:36.648Z,6.57
2019-01-16T02:59:26.051Z,7.10
2019-01-16T03:02:15.796Z,6.57
2019-01-16T03:05:04.967Z,3.80
2019-01-16T03:07:54.265Z,6.33
2019-01-16T03:10:43.537Z,7.37
2019-01-16T03:13:27.623Z,5.57
2019-01-16T03:16:16.925Z,5.53
2019-01-16T03:19:06.241Z,5.97
2019-01-16T03:21:55.547Z,6.17
2019-01-16T03:24:44.847Z,5.80
2019-01-16T03:27:34.106Z,5.63
2019-01-16T03:30:24.911Z,5.77
2019-01-16T03:33:14.178Z,4.07
2019-01-16T03:36:03.738Z,3.93
2019-01-16T03:38:50.857Z,5.10
2019-01-16T03:41:28.412Z,3.77
2019-01-16T03:44:05.422Z,4.63
2019-01-16T03:46:54.833Z,4.57
2019-01-16T03:49:33.415Z,2.83
2019-01-16T03:52:22.954Z,2.97
2019-01-16T03:55:04.762Z,3.40
2019-01-16T03:57:54.126Z,3.57
2019-01-16T04:00:43.523Z,3.60
2019-01-16T04:03:32.923Z,3.63
2019-01-16T04:06:22.276Z,5.57
2019-01-16T04:09:11.647Z,3.93
2019-01-16T04:12:01.046Z,4.60
2019-01-16T04:14:50.423Z,7.00
2019-01-16T04:17:39.736Z,2.43
2019-01-16T04:20:15.832Z,4.47
2019-01-16T04:22:53.743Z,5.07
2019-01-16T04:25:43.001Z,3.57
2019-01-16T04:28:21.242Z,5.97
2019-01-16T04:31:10.537Z,4.07
2019-01-16T04:33:59.949Z,5.90
2019-01-16T04:36:49.113Z,5.63
2019-01-16T04:39:38.458Z,3.50
2019-01-16T04:42:20.704Z,3.20
2019-01-16T04:45:09.272Z,3.80
2019-01-16T04:47:53.298Z,3.90
2019-01-16T04:50:42.572Z,4.27
2019-01-16T04:53:32.037Z,5.80
2019-01-16T04:56:21.303Z,4.80
2019-01-16T04:59:10.606Z,5.13
2019-01-16T05:01:55.886Z,4.47
2019-01-16T05:04:45.173Z,4.60
2019-01-16T05:07:33.697Z,5.27
2019-01-16T05:10:23.858Z,4.77
2019-01-16T05:13:13.296Z,6.33
2019-01-16T05:16:03.116Z,7.60
2019-01-16T05:18:48.512Z,8.50
2019-01-16T05:21:37.843Z,6.60
2019-01-16T05:24:27.252Z,8.77
2019-01-16T05:27:16.613Z,10.40
2019-01-16T05:29:59.237Z,11.13
2019-01-16T05:32:48.837Z,9.47
2019-01-16T05:35:38.878Z,11.00
2019-01-16T05:38:24.102Z,12.07
2019-01-16T05:41:13.402Z,11.53
2019-01-16T05:44:02.653Z,10.47
2019-01-16T05:46:48.665Z,14.83
2019-01-16T05:49:38.058Z,16.77
2019-01-16T05:52:27.586Z,19.07
2019-01-16T05:55:16.967Z,20.50
2019-01-16T05:58:06.361Z,17.87
2019-01-16T06:00:55.831Z,19.10
2019-01-16T06:03:45.207Z,22.37
2019-01-16T06:06:34.997Z,23.10
2019-01-16T06:09:21.424Z,21.50
2019-01-16T06:12:10.687Z,24.37
2019-01-16T06:15:00.243Z,25.30
2019-01-16T06:17:49.848Z,21.20
2019-01-16T06:20:39.733Z,19.43
2019-01-16T06:23:24.049Z,22.03
2019-01-16T06:26:13.508Z,17.50
2019-01-16T06:28:54.593Z,21.60
2019-01-16T06:31:37.338Z,18.77
2019-01-16T06:34:26.870Z,18.23
2019-01-16T06:37:16.303Z,23.27
2019-01-16T06:40:05.657Z,21.03
2019-01-16T06:42:55.448Z,18.43
2019-01-16T06:45:44.928Z,16.33
2019-01-16T06:48:26.997Z,14.87
2019-01-16T06:51:16.324Z,19.23
2019-01-16T06:54:02.854Z,18.37
2019-01-16T06:56:52.094Z,22.30
2019-01-16T06:59:41.474Z,18.13
2019-01-16T07:02:30.801Z,17.63
2019-01-16T07:05:20.298Z,17.33
2019-01-16T07:08:09.812Z,18.13
2019-01-16T07:10:52.758Z,19.80
2019-01-16T07:13:42.164Z,18.37
2019-01-16T07:16:27.841Z,17.07
2019-01-16T07:19:17.282Z,17.60
2019-01-16T07:22:06.573Z,19.23
2019-01-16T07:24:52.308Z,14.50
2019-01-16T07:27:41.777Z,15.10
2019-01-16T07:30:32.146Z,14.33
2019-01-16T07:33:21.392Z,16.00
2019-01-16T07:36:11.645Z,18.13
2019-01-16T07:39:01.111Z,17.33
2019-01-16T07:41:50.458Z,15.67
2019-01-16T07:44:39.773Z,20.90
2019-01-16T07:47:29.188Z,15.80
2019-01-16T07:50:17.165Z,17.13
2019-01-16T07:53:02.485Z,17.03
2019-01-16T07:55:51.908Z,16.60
2019-01-16T07:58:41.592Z,15.87
2019-01-16T08:01:28.334Z,17.70
2019-01-16T08:04:17.696Z,13.80
2019-01-16T08:07:07.205Z,15.97
2019-01-16T08:09:53.898Z,17.67
2019-01-16T08:12:43.130Z,15.97
2019-01-16T08:15:32.778Z,15.30
2019-01-16T08:18:17.438Z,14.60
2019-01-16T08:21:07.011Z,15.93
2019-01-16T08:23:56.652Z,14.90
2019-01-16T08:26:46.243Z,12.27
2019-01-16T08:29:27.747Z,9.43
2019-01-16T08:32:13.105Z,11.97
2019-01-16T08:35:02.829Z,12.97
2019-01-16T08:37:52.847Z,11.10
2019-01-16T08:40:42.217Z,10.93
2019-01-16T08:43:22.827Z,10.17
2019-01-16T08:46:11.197Z,10.57
2019-01-16T08:48:57.408Z,8.87
2019-01-16T08:51:46.821Z,10.57
2019-01-16T08:54:36.113Z,12.63
2019-01-16T08:57:25.916Z,11.27
2019-01-16T09:00:15.268Z,12.03
2019-01-16T09:03:00.626Z,10.03
2019-01-16T09:05:49.697Z,10.57
2019-01-16T09:08:39.132Z,11.13
2019-01-16T09:11:28.456Z,9.27
2019-01-16T09:14:17.884Z,11.87
2019-01-16T09:17:07.551Z,11.60
2019-01-16T09:19:47.654Z,8.40
2019-01-16T09:22:38.092Z,9.83
2019-01-16T09:25:17.883Z,8.77
2019-01-16T09:28:05.174Z,11.00
2019-01-16T09:30:54.507Z,9.10
2019-01-16T09:33:43.916Z,10.00
2019-01-16T09:36:27.986Z,13.67
2019-01-16T09:39:17.357Z,12.03
2019-01-16T09:42:00.987Z,13.13
2019-01-16T09:44:50.212Z,12.70
2019-01-16T09:47:29.756Z,14.47
2019-01-16T09:50:08.217Z,12.87
2019-01-16T09:52:57.499Z,12.43
2019-01-16T09:55:46.848Z,12.47
2019-01-16T09:58:36.302Z,13.47
2019-01-16T10:01:19.888Z,12.33
2019-01-16T10:04:09.197Z,11.60
2019-01-16T10:06:48.406Z,11.73
2019-01-16T10:09:37.726Z,11.63
2019-01-16T10:12:27.298Z,13.57
2019-01-16T10:15:16.758Z,11.70
2019-01-16T10:18:06.047Z,11.20
2019-01-16T10:20:56.075Z,14.97
2019-01-16T10:23:37.383Z,13.30
2019-01-16T10:26:26.917Z,11.03
2019-01-16T10:29:16.496Z,12.40
2019-01-16T10:31:57.151Z,10.60
2019-01-16T10:34:42.528Z,8.70
2019-01-16T10:37:30.305Z,10.93
2019-01-16T10:40:19.678Z,9.70
2019-01-16T10:43:08.979Z,11.70
2019-01-16T10:45:58.408Z,9.57
2019-01-16T10:48:49.842Z,10.57
2019-01-16T10:51:37.338Z,10.40
2019-01-16T10:54:17.139Z,10.93
2019-01-16T10:57:06.555Z,11.30
2019-01-16T10:59:50.775Z,11.23
2019-01-16T11:02:32.693Z,11.67
2019-01-16T11:05:16.309Z,12.07
2019-01-16T11:07:54.148Z,10.43
2019-01-16T11:10:43.616Z,9.97
2019-01-16T11:13:32.850Z,9.03
2019-01-16T11:16:22.329Z,8.93
2019-01-16T11:19:08.832Z,9.10
2019-01-16T11:21:58.222Z,8.37
2019-01-16T11:24:46.256Z,9.17
2019-01-16T11:27:25.498Z,12.57
2019-01-16T11:30:14.952Z,8.77
2019-01-16T11:33:04.274Z,9.63
2019-01-16T11:35:53.582Z,28.33
2019-01-16T11:38:43.716Z,22.23
2019-01-16T11:41:30.942Z,13.73
2019-01-16T11:44:20.390Z,12.03
2019-01-16T11:47:08.657Z,10.63
2019-01-16T11:49:58.015Z,14.80
2019-01-16T11:52:41.981Z,13.03
2019-01-16T11:55:31.476Z,11.37
2019-01-16T11:58:20.803Z,10.37
2019-01-16T12:01:02.166Z,7.40
2019-01-16T12:03:51.556Z,8.93
2019-01-16T12:06:28.984Z,8.00
2019-01-16T12:09:18.833Z,8.70
2019-01-16T12:12:08.054Z,10.13
2019-01-16T12:14:54.174Z,11.53
2019-01-16T12:17:33.752Z,9.60
2019-01-16T12:20:23.330Z,8.23
2019-01-16T12:23:12.648Z,7.97
2019-01-16T12:25:52.729Z,9.97
2019-01-16T12:28:40.080Z,8.43
2019-01-16T12:31:29.478Z,9.83
2019-01-16T12:34:11.672Z,7.63
2019-01-16T12:37:01.080Z,8.53
2019-01-16T12:39:50.303Z,6.63
2019-01-16T12:42:39.632Z,8.87
2019-01-16T12:45:29.352Z,8.17
2019-01-16T12:48:10.658Z,8.27
2019-01-16T12:50:55.028Z,6.53
2019-01-16T12:53:36.201Z,8.07
2019-01-16T12:56:25.662Z,8.43
2019-01-16T12:59:15.100Z,7.47
2019-01-16T13:02:04.483Z,8.30
2019-01-16T13:04:50.097Z,8.63
2019-01-16T13:07:39.493Z,7.43
2019-01-16T13:10:24.877Z,9.97
2019-01-16T13:13:14.237Z,8.57
2019-01-16T13:16:03.832Z,8.33
2019-01-16T13:18:54.117Z,5.93
2019-01-16T13:21:43.582Z,8.63
2019-01-16T13:24:32.852Z,10.50
2019-01-16T13:27:22.358Z,12.03
2019-01-16T13:30:11.643Z,8.67
2019-01-16T13:33:00.979Z,7.53
2019-01-16T13:35:50.333Z,8.27
2019-01-16T13:38:29.664Z,7.13
2019-01-16T13:41:13.712Z,7.70
2019-01-16T13:43:59.689Z,6.00
2019-01-16T13:46:49.078Z,7.33
2019-01-16T13:49:38.425Z,6.90
2019-01-16T13:52:27.893Z,8.60
2019-01-16T13:55:17.179Z,8.53
2019-01-16T13:58:06.622Z,7.03
2019-01-16T14:00:53.713Z,8.00
2019-01-16T14:03:31.407Z,8.17
2019-01-16T14:06:20.687Z,10.23
2019-01-16T14:09:10.478Z,9.43
2019-01-16T14:11:59.870Z,8.47
2019-01-16T14:14:49.357Z,12.20
2019-01-16T14:17:38.663Z,11.00
2019-01-16T14:20:32.815Z,10.90
2019-01-16T14:23:22.156Z,10.53
2019-01-16T14:26:04.111Z,9.10
2019-01-16T14:28:53.447Z,11.10
2019-01-16T14:31:42.736Z,10.40
2019-01-16T14:34:32.056Z,11.87
2019-01-16T14:37:21.427Z,9.47
2019-01-16T14:40:10.667Z,9.20
2019-01-16T14:43:00.110Z,10.57
2019-01-16T14:45:49.496Z,9.37
2019-01-16T14:48:30.727Z,9.30
2019-01-16T14:51:20.201Z,9.90
2019-01-16T14:54:09.578Z,9.53
2019-01-16T14:56:54.053Z,9.57
2019-01-16T14:59:43.358Z,8.67
2019-01-16T15:02:31.134Z,9.17
2019-01-16T15:05:22.197Z,8.73
2019-01-16T15:08:11.585Z,12.90
2019-01-16T15:11:00.902Z,12.10
2019-01-16T15:14:00.195Z,6.63
2019-01-16T15:16:49.903Z,7.97
2019-01-16T15:19:39.315Z,8.50
2019-01-16T15:22:20.925Z,7.67
2019-01-16T15:25:06.157Z,7.90
2019-01-16T15:27:55.512Z,8.27
2019-01-16T15:30:45.459Z,8.30
2019-01-16T15:33:34.870Z,8.97
2019-01-16T15:36:24.657Z,11.13
2019-01-16T15:39:14.023Z,11.47
2019-01-16T15:41:54.598Z,13.37
2019-01-16T15:44:44.102Z,14.73
2019-01-16T15:47:33.604Z,13.50
2019-01-16T15:50:19.853Z,13.23
2019-01-16T15:53:09.368Z,15.43
2019-01-16T15:55:59.813Z,13.17
2019-01-16T15:58:49.203Z,12.57
2019-01-16T16:01:34.317Z,14.13
2019-01-16T16:04:13.016Z,15.83
2019-01-16T16:07:02.582Z,13.90
2019-01-16T16:09:52.033Z,9.67
2019-01-16T16:12:42.667Z,14.70
2019-01-16T16:15:37.733Z,12.27
2019-01-16T16:18:30.578Z,15.87
2019-01-16T16:21:23.732Z,14.93
2019-01-16T16:24:13.546Z,15.33
2019-01-16T16:27:03.097Z,17.00
2019-01-16T16:29:56.643Z,16.43
2019-01-16T16:32:39.853Z,16.50
2019-01-16T16:35:29.528Z,15.03
2019-01-16T16:38:19.078Z,21.93
2019-01-16T16:41:02.367Z,30.80
2019-01-16T16:43:49.947Z,34.40
2019-01-16T16:46:46.926Z,46.90
2019-01-16T16:49:36.443Z,53.47
2019-01-16T16:52:26.212Z,42.27
2019-01-16T16:55:15.762Z,55.30
2019-01-16T16:57:57.742Z,46.87
2019-01-16T17:00:47.205Z,36.23
2019-01-16T17:03:40.222Z,50.67
2019-01-16T17:06:31.116Z,50.53
2019-01-16T17:09:20.529Z,40.87
2019-01-16T17:12:23.097Z,40.70
2019-01-16T17:15:12.479Z,36.20
2019-01-16T17:18:04.677Z,32.53
2019-01-16T17:20:45.314Z,24.20
2019-01-16T17:23:37.882Z,23.40
2019-01-16T17:26:27.366Z,26.47
2019-01-16T17:29:19.574Z,26.53
2019-01-16T17:32:12.533Z,24.27
2019-01-16T17:35:01.958Z,27.10
2019-01-16T17:37:49.986Z,24.77
2019-01-16T17:40:44.023Z,25.90
2019-01-16T17:43:31.182Z,32.10
2019-01-16T17:46:25.533Z,30.37
2019-01-16T17:49:18.454Z,27.40
2019-01-16T17:52:07.913Z,28.87
2019-01-16T17:54:58.292Z,27.20
2019-01-16T17:57:51.469Z,24.27
2019-01-16T18:00:43.157Z,24.53
2019-01-16T18:03:36.997Z,24.37
2019-01-16T18:06:25.668Z,25.20
2019-01-16T18:09:15.769Z,24.60
2019-01-16T18:12:06.463Z,25.17
2019-01-16T18:14:54.393Z,22.77
2019-01-16T18:17:44.966Z,24.93
2019-01-16T18:20:38.944Z,22.03
2019-01-16T18:23:32.542Z,22.83
2019-01-16T18:26:22.057Z,31.53
2019-01-16T18:29:15.528Z,34.17
2019-01-16T18:32:06.087Z,26.53
2019-01-16T18:34:55.597Z,28.03
2019-01-16T18:37:41.156Z,24.70
2019-01-16T18:40:39.249Z,22.87
2019-01-16T18:43:23.727Z,21.33
2019-01-16T18:46:15.537Z,23.77
2019-01-16T18:49:07.762Z,20.83
2019-01-16T18:51:57.818Z,18.67
2019-01-16T18:54:50.708Z,21.13
2019-01-16T18:57:31.893Z,23.07
2019-01-16T19:00:22.531Z,22.43
2019-01-16T19:03:18.719Z,26.90
2019-01-16T19:06:11.663Z,25.33
2019-01-16T19:09:01.204Z,22.07
2019-01-16T19:11:54.304Z,20.70
2019-01-16T19:14:43.908Z,21.60
2019-01-16T19:17:34.803Z,21.50
2019-01-16T19:20:21.433Z,18.73
2019-01-16T19:23:11.278Z,18.83
2019-01-16T19:26:03.091Z,21.97
2019-01-16T19:28:56.062Z,18.60
2019-01-16T19:31:51.651Z,16.93
2019-01-16T19:34:36.018Z,17.43
2019-01-16T19:37:17.792Z,17.53
2019-01-16T19:40:08.366Z,16.50
2019-01-16T19:43:00.044Z,14.10
2019-01-16T19:45:52.002Z,20.80
2019-01-16T19:48:49.039Z,20.77
2019-01-16T19:51:47.583Z,21.13
2019-01-16T19:54:33.027Z,23.57
2019-01-16T19:57:28.683Z,20.27
2019-01-16T20:00:13.979Z,20.07
2019-01-16T20:03:01.297Z,19.43
2019-01-16T20:05:54.669Z,20.93
2019-01-16T20:08:45.093Z,21.43
2019-01-16T20:11:35.992Z,21.80
2019-01-16T20:14:31.884Z,22.63
2019-01-16T20:17:19.667Z,24.57
2019-01-16T20:20:06.392Z,25.03
2019-01-16T20:22:59.016Z,21.33
2019-01-16T20:25:52.397Z,22.43
2019-01-16T20:28:43.478Z,22.53
2019-01-16T20:31:33.037Z,26.80
2019-01-16T20:34:22.667Z,28.90
2019-01-16T20:37:08.722Z,32.50
2019-01-16T20:40:00.228Z,29.70
2019-01-16T20:42:51.346Z,28.37
2019-01-16T20:45:51.020Z,27.90
2019-01-16T20:48:36.037Z,26.03
2019-01-16T20:51:30.829Z,37.87
2019-01-16T20:54:22.178Z,40.73
2019-01-16T20:57:11.984Z,31.30
2019-01-16T21:00:07.758Z,29.57
2019-01-16T21:03:02.726Z,27.67
2019-01-16T21:06:08.357Z,28.40
2019-01-16T21:08:42.240Z,39.47
2019-01-16T21:11:36.742Z,38.03
2019-01-16T21:14:30.793Z,46.00
2019-01-16T21:17:23.135Z,52.17
2019-01-16T21:20:13.268Z,57.07
2019-01-16T21:23:02.783Z,46.37
2019-01-16T21:26:04.544Z,30.57
2019-01-16T21:28:55.049Z,31.83
2019-01-16T21:31:45.466Z,30.00
2019-01-16T21:34:43.647Z,27.20
2019-01-16T21:37:22.748Z,24.90
2019-01-16T21:40:12.277Z,25.83
2019-01-16T21:43:05.183Z,22.20
2019-01-16T21:45:54.654Z,24.73
2019-01-16T21:48:42.792Z,24.77
2019-01-16T21:51:32.227Z,23.33
2019-01-16T21:54:21.678Z,30.07
2019-01-16T21:57:11.387Z,24.80
2019-01-16T22:00:00.887Z,24.57
2019-01-16T22:02:50.786Z,20.40
2019-01-16T22:05:37.533Z,25.07
2019-01-16T22:08:27.418Z,21.30
2019-01-16T22:11:08.115Z,25.17
2019-01-16T22:13:53.311Z,29.67
2019-01-16T22:16:42.957Z,24.77
2019-01-16T22:19:32.915Z,22.60
2019-01-16T22:22:13.132Z,27.63
2019-01-16T22:25:02.568Z,24.00
2019-01-16T22:27:51.957Z,25.93
2019-01-16T22:30:41.432Z,25.50
2019-01-16T22:33:30.769Z,30.13
2019-01-16T22:36:25.377Z,31.43
2019-01-16T22:39:08.827Z,29.67
2019-01-16T22:42:00.118Z,28.40
2019-01-16T22:44:52.040Z,66.53
2019-01-16T22:47:41.554Z,29.17
2019-01-16T22:50:22.447Z,29.07
2019-01-16T22:53:11.788Z,29.03
2019-01-16T22:56:00.267Z,29.63
2019-01-16T22:58:37.069Z,30.97
2019-01-16T23:01:17.087Z,29.70
2019-01-16T23:04:06.566Z,31.50
2019-01-16T23:06:56.120Z,32.23
2019-01-16T23:09:35.766Z,37.47
2019-01-16T23:12:25.326Z,41.20
2019-01-16T23:15:14.709Z,46.37
2019-01-16T23:18:04.063Z,51.27
2019-01-16T23:20:53.426Z,42.67
2019-01-16T23:23:42.807Z,43.97
2019-01-16T23:26:32.117Z,47.70
2019-01-16T23:29:13.374Z,43.27
2019-01-16T23:31:57.906Z,39.50
2019-01-16T23:34:46.102Z,43.57
2019-01-16T23:37:35.526Z,36.83
2019-01-16T23:40:17.807Z,38.30
2019-01-16T23:43:07.166Z,39.43
2019-01-16T23:45:56.642Z,39.77
2019-01-16T23:48:36.312Z,38.40
2019-01-16T23:51:25.848Z,37.57
2019-01-16T23:54:15.644Z,43.87
2019-01-16T23:56:56.477Z,40.70
2019-01-16T23:59:45.810Z,39.77
